Brasilia de Minas, Brazil
Current Conditions -  °F | °C
As of 8:00 PM on Monday 22 Dec 2014 (Local Time) from SBMK Reporting Station
Clear Clear  
Wind Chill: 79°   Ceiling: Unl
Heat Index: 81°   Visibility: 6mi
Dew Point: 66°   Wind: 5mph
Humidity: 65%   Direction: 320°NW
Pressure: 29.94"   Gusts: NA
Location:  16.21°S, 44.43°W
Report Text: SBMK 222200Z 32004KT CAVOK 26/19 Q1014
Loading
Personal Weather Stations






























Interactive Weather Map New forecast layout! Learn more

10-Day Weather Forecast

Advertisements
Track Severe Weather on mobile